sensor_id;sensor_type;location;lat;lon;timestamp;P1;durP1;ratioP1;P2;durP2;ratioP2
36457;SDS011;22480;50.546;12.292;2022-11-24T00:02:01;23.58;;;13.43;;
36457;SDS011;22480;50.546;12.292;2022-11-24T00:04:27;22.80;;;12.73;;
36457;SDS011;22480;50.546;12.292;2022-11-24T00:06:53;22.48;;;13.40;;
36457;SDS011;22480;50.546;12.292;2022-11-24T00:09:19;23.15;;;13.38;;
36457;SDS011;22480;50.546;12.292;2022-11-24T00:11:44;21.48;;;12.57;;
36457;SDS011;22480;50.546;12.292;2022-11-24T00:14:10;23.02;;;13.02;;
36457;SDS011;22480;50.546;12.292;2022-11-24T00:16:37;19.90;;;13.23;;
36457;SDS011;22480;50.546;12.292;2022-11-24T00:19:04;17.00;;;12.40;;
36457;SDS011;22480;50.546;12.292;2022-11-24T00:21:33;16.38;;;12.75;;
36457;SDS011;22480;50.546;12.292;2022-11-24T00:24:00;20.88;;;13.65;;
36457;SDS011;22480;50.546;12.292;2022-11-24T00:26:29;18.92;;;12.25;;
36457;SDS011;22480;50.546;12.292;2022-11-24T00:28:57;23.23;;;13.80;;
36457;SDS011;22480;50.546;12.292;2022-11-24T00:31:25;20.73;;;12.75;;
36457;SDS011;22480;50.546;12.292;2022-11-24T00:33:54;21.33;;;12.75;;
36457;SDS011;22480;50.546;12.292;2022-11-24T00:36:22;19.25;;;13.68;;
36457;SDS011;22480;50.546;12.292;2022-11-24T00:38:53;24.08;;;14.10;;
36457;SDS011;22480;50.546;12.292;2022-11-24T00:41:20;22.15;;;14.30;;
36457;SDS011;22480;50.546;12.292;2022-11-24T00:43:46;20.65;;;13.65;;
36457;SDS011;22480;50.546;12.292;2022-11-24T00:46:12;23.00;;;13.77;;
36457;SDS011;22480;50.546;12.292;2022-11-24T00:48:38;20.50;;;13.20;;
36457;SDS011;22480;50.546;12.292;2022-11-24T00:51:05;24.73;;;14.85;;
36457;SDS011;22480;50.546;12.292;2022-11-24T00:53:32;25.58;;;15.20;;
36457;SDS011;22480;50.546;12.292;2022-11-24T00:55:58;24.15;;;14.23;;
36457;SDS011;22480;50.546;12.292;2022-11-24T00:58:24;24.02;;;14.45;;
36457;SDS011;22480;50.546;12.292;2022-11-24T01:00:51;23.42;;;13.50;;
36457;SDS011;22480;50.546;12.292;2022-11-24T01:03:17;24.60;;;14.48;;
36457;SDS011;22480;50.546;12.292;2022-11-24T01:05:44;22.80;;;13.70;;
36457;SDS011;22480;50.546;12.292;2022-11-24T01:08:10;24.70;;;13.98;;
36457;SDS011;22480;50.546;12.292;2022-11-24T01:10:36;21.20;;;12.88;;
36457;SDS011;22480;50.546;12.292;2022-11-24T01:13:02;21.08;;;14.20;;
36457;SDS011;22480;50.546;12.292;2022-11-24T01:15:29;25.05;;;14.45;;
36457;SDS011;22480;50.546;12.292;2022-11-24T01:17:55;21.75;;;13.63;;
36457;SDS011;22480;50.546;12.292;2022-11-24T01:20:21;21.52;;;14.07;;
36457;SDS011;22480;50.546;12.292;2022-11-24T01:22:48;21.80;;;13.60;;
36457;SDS011;22480;50.546;12.292;2022-11-24T01:25:14;19.55;;;13.32;;
36457;SDS011;22480;50.546;12.292;2022-11-24T01:27:39;21.63;;;13.32;;
36457;SDS011;22480;50.546;12.292;2022-11-24T01:30:06;21.88;;;13.68;;
36457;SDS011;22480;50.546;12.292;2022-11-24T01:32:32;22.52;;;14.20;;
36457;SDS011;22480;50.546;12.292;2022-11-24T01:35:00;18.00;;;13.43;;
36457;SDS011;22480;50.546;12.292;2022-11-24T01:37:26;22.70;;;13.10;;
36457;SDS011;22480;50.546;12.292;2022-11-24T01:39:52;21.45;;;12.65;;
36457;SDS011;22480;50.546;12.292;2022-11-24T01:42:18;18.10;;;12.85;;
36457;SDS011;22480;50.546;12.292;2022-11-24T01:44:43;19.67;;;12.85;;
36457;SDS011;22480;50.546;12.292;2022-11-24T01:49:50;20.23;;;12.38;;
36457;SDS011;22480;50.546;12.292;2022-11-24T01:52:39;19.77;;;12.30;;
36457;SDS011;22480;50.546;12.292;2022-11-24T01:55:10;17.85;;;11.23;;
36457;SDS011;22480;50.546;12.292;2022-11-24T01:57:42;17.30;;;11.95;;
36457;SDS011;22480;50.546;12.292;2022-11-24T02:00:11;17.90;;;11.00;;
36457;SDS011;22480;50.546;12.292;2022-11-24T02:02:42;19.15;;;11.75;;
36457;SDS011;22480;50.546;12.292;2022-11-24T02:05:17;18.02;;;10.95;;
36457;SDS011;22480;50.546;12.292;2022-11-24T02:07:43;15.80;;;10.07;;
36457;SDS011;22480;50.546;12.292;2022-11-24T02:10:12;14.15;;;9.20;;
36457;SDS011;22480;50.546;12.292;2022-11-24T02:12:39;15.85;;;9.00;;
36457;SDS011;22480;50.546;12.292;2022-11-24T02:15:07;12.25;;;9.10;;
36457;SDS011;22480;50.546;12.292;2022-11-24T02:17:34;16.63;;;9.80;;
36457;SDS011;22480;50.546;12.292;2022-11-24T02:20:01;13.15;;;8.90;;
36457;SDS011;22480;50.546;12.292;2022-11-24T02:28:21;14.82;;;9.57;;
36457;SDS011;22480;50.546;12.292;2022-11-24T02:30:48;11.70;;;8.38;;
36457;SDS011;22480;50.546;12.292;2022-11-24T02:33:15;11.63;;;8.57;;
36457;SDS011;22480;50.546;12.292;2022-11-24T02:35:41;11.02;;;8.00;;
36457;SDS011;22480;50.546;12.292;2022-11-24T02:38:10;13.10;;;8.18;;
36457;SDS011;22480;50.546;12.292;2022-11-24T02:40:37;10.52;;;7.05;;
36457;SDS011;22480;50.546;12.292;2022-11-24T02:43:09;11.40;;;7.70;;
36457;SDS011;22480;50.546;12.292;2022-11-24T02:45:37;14.57;;;7.85;;
36457;SDS011;22480;50.546;12.292;2022-11-24T02:48:03;10.75;;;7.22;;
36457;SDS011;22480;50.546;12.292;2022-11-24T02:50:30;11.57;;;7.57;;
36457;SDS011;22480;50.546;12.292;2022-11-24T02:52:55;13.20;;;8.38;;
36457;SDS011;22480;50.546;12.292;2022-11-24T02:55:21;12.20;;;7.43;;
36457;SDS011;22480;50.546;12.292;2022-11-24T02:57:47;9.88;;;7.60;;
36457;SDS011;22480;50.546;12.292;2022-11-24T03:00:13;10.88;;;7.65;;
36457;SDS011;22480;50.546;12.292;2022-11-24T03:02:40;10.80;;;8.00;;
36457;SDS011;22480;50.546;12.292;2022-11-24T03:05:05;12.50;;;8.13;;
36457;SDS011;22480;50.546;12.292;2022-11-24T03:07:32;13.40;;;8.10;;
36457;SDS011;22480;50.546;12.292;2022-11-24T03:09:57;12.32;;;7.80;;
36457;SDS011;22480;50.546;12.292;2022-11-24T03:12:23;14.77;;;8.45;;
36457;SDS011;22480;50.546;12.292;2022-11-24T03:14:49;13.75;;;8.88;;
36457;SDS011;22480;50.546;12.292;2022-11-24T03:17:15;12.73;;;8.60;;
36457;SDS011;22480;50.546;12.292;2022-11-24T03:19:40;12.50;;;8.88;;
36457;SDS011;22480;50.546;12.292;2022-11-24T03:22:06;13.55;;;8.77;;
36457;SDS011;22480;50.546;12.292;2022-11-24T03:24:32;12.63;;;8.45;;
36457;SDS011;22480;50.546;12.292;2022-11-24T03:26:57;10.70;;;8.10;;
36457;SDS011;22480;50.546;12.292;2022-11-24T03:29:23;14.23;;;9.57;;
36457;SDS011;22480;50.546;12.292;2022-11-24T03:31:49;14.10;;;9.45;;
36457;SDS011;22480;50.546;12.292;2022-11-24T03:34:15;14.68;;;8.82;;
36457;SDS011;22480;50.546;12.292;2022-11-24T03:36:40;12.80;;;8.50;;
36457;SDS011;22480;50.546;12.292;2022-11-24T03:39:06;13.93;;;7.97;;
36457;SDS011;22480;50.546;12.292;2022-11-24T03:41:32;13.27;;;9.15;;
36457;SDS011;22480;50.546;12.292;2022-11-24T03:43:57;13.23;;;8.38;;
36457;SDS011;22480;50.546;12.292;2022-11-24T03:46:23;13.40;;;9.10;;
36457;SDS011;22480;50.546;12.292;2022-11-24T03:48:49;15.98;;;9.18;;
36457;SDS011;22480;50.546;12.292;2022-11-24T03:51:15;12.23;;;8.20;;
36457;SDS011;22480;50.546;12.292;2022-11-24T03:53:40;16.02;;;9.23;;
36457;SDS011;22480;50.546;12.292;2022-11-24T03:56:06;13.85;;;8.40;;
36457;SDS011;22480;50.546;12.292;2022-11-24T03:58:32;15.60;;;9.05;;
36457;SDS011;22480;50.546;12.292;2022-11-24T04:00:58;15.20;;;9.90;;
36457;SDS011;22480;50.546;12.292;2022-11-24T04:03:24;14.88;;;9.27;;
36457;SDS011;22480;50.546;12.292;2022-11-24T04:05:50;15.68;;;9.52;;
36457;SDS011;22480;50.546;12.292;2022-11-24T04:08:16;14.98;;;9.20;;
36457;SDS011;22480;50.546;12.292;2022-11-24T04:10:42;16.13;;;9.60;;
36457;SDS011;22480;50.546;12.292;2022-11-24T04:13:15;14.52;;;8.90;;
36457;SDS011;22480;50.546;12.292;2022-11-24T04:15:42;16.83;;;9.70;;
36457;SDS011;22480;50.546;12.292;2022-11-24T04:18:09;18.50;;;9.55;;
36457;SDS011;22480;50.546;12.292;2022-11-24T04:20:35;16.70;;;10.30;;
36457;SDS011;22480;50.546;12.292;2022-11-24T04:23:01;15.75;;;9.70;;
36457;SDS011;22480;50.546;12.292;2022-11-24T04:25:27;21.15;;;10.75;;
36457;SDS011;22480;50.546;12.292;2022-11-24T04:27:53;16.23;;;10.02;;
36457;SDS011;22480;50.546;12.292;2022-11-24T04:30:20;16.35;;;10.60;;
36457;SDS011;22480;50.546;12.292;2022-11-24T04:32:47;18.55;;;10.73;;
36457;SDS011;22480;50.546;12.292;2022-11-24T04:35:13;17.35;;;9.95;;
36457;SDS011;22480;50.546;12.292;2022-11-24T04:37:39;18.05;;;10.48;;
36457;SDS011;22480;50.546;12.292;2022-11-24T04:40:06;18.75;;;11.95;;
36457;SDS011;22480;50.546;12.292;2022-11-24T04:42:33;22.02;;;12.82;;
36457;SDS011;22480;50.546;12.292;2022-11-24T04:44:59;24.25;;;15.30;;
36457;SDS011;22480;50.546;12.292;2022-11-24T04:47:24;30.50;;;16.63;;
36457;SDS011;22480;50.546;12.292;2022-11-24T04:49:51;30.85;;;17.50;;
36457;SDS011;22480;50.546;12.292;2022-11-24T04:52:17;28.98;;;17.92;;
36457;SDS011;22480;50.546;12.292;2022-11-24T04:54:45;31.75;;;20.00;;
36457;SDS011;22480;50.546;12.292;2022-11-24T04:57:21;49.92;;;33.95;;
36457;SDS011;22480;50.546;12.292;2022-11-24T04:59:49;28.23;;;16.77;;
36457;SDS011;22480;50.546;12.292;2022-11-24T05:02:15;40.08;;;24.05;;
36457;SDS011;22480;50.546;12.292;2022-11-24T05:04:41;41.58;;;23.33;;
36457;SDS011;22480;50.546;12.292;2022-11-24T05:07:09;27.95;;;14.60;;
36457;SDS011;22480;50.546;12.292;2022-11-24T05:09:36;24.58;;;14.65;;
36457;SDS011;22480;50.546;12.292;2022-11-24T05:12:21;21.05;;;13.15;;
36457;SDS011;22480;50.546;12.292;2022-11-24T05:14:48;22.17;;;13.23;;
36457;SDS011;22480;50.546;12.292;2022-11-24T05:17:15;22.65;;;13.05;;
36457;SDS011;22480;50.546;12.292;2022-11-24T05:19:41;25.27;;;12.45;;
36457;SDS011;22480;50.546;12.292;2022-11-24T05:22:07;21.40;;;11.88;;
36457;SDS011;22480;50.546;12.292;2022-11-24T05:24:32;28.15;;;12.77;;
36457;SDS011;22480;50.546;12.292;2022-11-24T05:26:58;22.27;;;12.18;;
36457;SDS011;22480;50.546;12.292;2022-11-24T05:29:24;26.77;;;11.85;;
36457;SDS011;22480;50.546;12.292;2022-11-24T05:31:50;23.52;;;12.32;;
36457;SDS011;22480;50.546;12.292;2022-11-24T05:34:15;20.88;;;9.80;;
36457;SDS011;22480;50.546;12.292;2022-11-24T05:36:42;18.63;;;10.43;;
36457;SDS011;22480;50.546;12.292;2022-11-24T05:39:17;26.67;;;10.20;;
36457;SDS011;22480;50.546;12.292;2022-11-24T05:41:43;24.60;;;12.02;;
36457;SDS011;22480;50.546;12.292;2022-11-24T05:44:09;25.58;;;11.57;;
36457;SDS011;22480;50.546;12.292;2022-11-24T05:46:34;22.23;;;9.43;;
36457;SDS011;22480;50.546;12.292;2022-11-24T05:49:00;17.38;;;9.27;;
36457;SDS011;22480;50.546;12.292;2022-11-24T05:51:26;23.27;;;9.30;;
36457;SDS011;22480;50.546;12.292;2022-11-24T05:53:52;24.83;;;10.50;;
36457;SDS011;22480;50.546;12.292;2022-11-24T05:56:17;19.30;;;10.18;;
36457;SDS011;22480;50.546;12.292;2022-11-24T05:58:43;21.15;;;10.27;;
36457;SDS011;22480;50.546;12.292;2022-11-24T06:01:09;18.05;;;9.27;;
36457;SDS011;22480;50.546;12.292;2022-11-24T06:03:34;23.02;;;10.27;;
36457;SDS011;22480;50.546;12.292;2022-11-24T06:06:00;25.85;;;9.63;;
36457;SDS011;22480;50.546;12.292;2022-11-24T06:08:27;26.50;;;9.25;;
36457;SDS011;22480;50.546;12.292;2022-11-24T06:10:53;15.50;;;8.32;;
36457;SDS011;22480;50.546;12.292;2022-11-24T06:13:18;19.38;;;7.97;;
36457;SDS011;22480;50.546;12.292;2022-11-24T06:15:44;21.10;;;8.55;;
36457;SDS011;22480;50.546;12.292;2022-11-24T06:18:10;18.20;;;8.95;;
36457;SDS011;22480;50.546;12.292;2022-11-24T06:20:36;18.98;;;7.80;;
36457;SDS011;22480;50.546;12.292;2022-11-24T06:23:02;18.70;;;8.30;;
36457;SDS011;22480;50.546;12.292;2022-11-24T06:25:28;20.80;;;8.73;;
36457;SDS011;22480;50.546;12.292;2022-11-24T06:27:53;27.48;;;8.30;;
36457;SDS011;22480;50.546;12.292;2022-11-24T06:30:19;23.63;;;8.52;;
36457;SDS011;22480;50.546;12.292;2022-11-24T06:32:45;20.58;;;8.75;;
36457;SDS011;22480;50.546;12.292;2022-11-24T06:35:11;24.10;;;9.93;;
36457;SDS011;22480;50.546;12.292;2022-11-24T06:37:38;19.85;;;8.25;;
36457;SDS011;22480;50.546;12.292;2022-11-24T06:40:04;20.85;;;9.25;;
36457;SDS011;22480;50.546;12.292;2022-11-24T06:42:33;23.75;;;10.20;;
36457;SDS011;22480;50.546;12.292;2022-11-24T06:44:59;26.80;;;9.30;;
36457;SDS011;22480;50.546;12.292;2022-11-24T06:47:24;25.40;;;10.15;;
36457;SDS011;22480;50.546;12.292;2022-11-24T06:49:50;30.88;;;11.20;;
36457;SDS011;22480;50.546;12.292;2022-11-24T06:52:16;23.55;;;12.75;;
36457;SDS011;22480;50.546;12.292;2022-11-24T06:54:42;22.73;;;11.70;;
36457;SDS011;22480;50.546;12.292;2022-11-24T06:57:07;23.45;;;11.35;;
36457;SDS011;22480;50.546;12.292;2022-11-24T06:59:33;26.48;;;10.68;;
36457;SDS011;22480;50.546;12.292;2022-11-24T07:01:59;19.38;;;9.57;;
36457;SDS011;22480;50.546;12.292;2022-11-24T07:04:24;25.27;;;11.52;;
36457;SDS011;22480;50.546;12.292;2022-11-24T07:06:50;32.17;;;13.68;;
36457;SDS011;22480;50.546;12.292;2022-11-24T07:09:16;28.13;;;12.13;;
36457;SDS011;22480;50.546;12.292;2022-11-24T07:11:41;30.38;;;11.65;;
36457;SDS011;22480;50.546;12.292;2022-11-24T07:14:07;28.55;;;10.88;;
36457;SDS011;22480;50.546;12.292;2022-11-24T07:16:33;27.67;;;11.57;;
36457;SDS011;22480;50.546;12.292;2022-11-24T07:18:59;35.67;;;11.75;;
36457;SDS011;22480;50.546;12.292;2022-11-24T07:21:26;21.08;;;10.95;;
36457;SDS011;22480;50.546;12.292;2022-11-24T07:23:54;21.83;;;9.90;;
36457;SDS011;22480;50.546;12.292;2022-11-24T07:26:21;23.33;;;10.97;;
36457;SDS011;22480;50.546;12.292;2022-11-24T07:28:48;24.38;;;10.23;;
36457;SDS011;22480;50.546;12.292;2022-11-24T07:31:16;27.73;;;10.80;;
36457;SDS011;22480;50.546;12.292;2022-11-24T07:33:47;32.72;;;11.23;;
36457;SDS011;22480;50.546;12.292;2022-11-24T07:36:14;22.00;;;10.82;;
36457;SDS011;22480;50.546;12.292;2022-11-24T07:38:39;24.17;;;12.05;;
36457;SDS011;22480;50.546;12.292;2022-11-24T07:41:06;26.25;;;10.90;;
36457;SDS011;22480;50.546;12.292;2022-11-24T07:43:33;17.30;;;9.98;;
36457;SDS011;22480;50.546;12.292;2022-11-24T07:46:00;22.88;;;10.35;;
36457;SDS011;22480;50.546;12.292;2022-11-24T07:48:26;27.75;;;10.45;;
36457;SDS011;22480;50.546;12.292;2022-11-24T07:50:52;25.67;;;10.43;;
36457;SDS011;22480;50.546;12.292;2022-11-24T07:53:18;22.52;;;10.27;;
36457;SDS011;22480;50.546;12.292;2022-11-24T07:55:43;23.35;;;11.43;;
36457;SDS011;22480;50.546;12.292;2022-11-24T07:58:22;23.48;;;9.98;;
36457;SDS011;22480;50.546;12.292;2022-11-24T08:00:48;30.08;;;10.48;;
36457;SDS011;22480;50.546;12.292;2022-11-24T08:03:13;18.10;;;9.93;;
36457;SDS011;22480;50.546;12.292;2022-11-24T08:05:39;23.92;;;10.50;;
36457;SDS011;22480;50.546;12.292;2022-11-24T08:08:05;19.20;;;10.13;;
36457;SDS011;22480;50.546;12.292;2022-11-24T08:10:31;27.90;;;10.30;;
36457;SDS011;22480;50.546;12.292;2022-11-24T08:13:00;28.55;;;12.20;;
36457;SDS011;22480;50.546;12.292;2022-11-24T08:15:26;24.60;;;11.55;;
36457;SDS011;22480;50.546;12.292;2022-11-24T08:17:51;35.03;;;15.30;;
36457;SDS011;22480;50.546;12.292;2022-11-24T08:20:17;32.67;;;16.50;;
36457;SDS011;22480;50.546;12.292;2022-11-24T08:22:43;24.95;;;13.68;;
36457;SDS011;22480;50.546;12.292;2022-11-24T08:25:09;34.78;;;15.07;;
36457;SDS011;22480;50.546;12.292;2022-11-24T08:27:35;35.55;;;15.50;;
36457;SDS011;22480;50.546;12.292;2022-11-24T08:30:01;31.27;;;12.35;;
36457;SDS011;22480;50.546;12.292;2022-11-24T08:32:26;20.90;;;11.15;;
36457;SDS011;22480;50.546;12.292;2022-11-24T08:34:52;20.25;;;11.88;;
36457;SDS011;22480;50.546;12.292;2022-11-24T08:37:18;22.13;;;10.77;;
36457;SDS011;22480;50.546;12.292;2022-11-24T08:39:44;16.73;;;10.25;;
36457;SDS011;22480;50.546;12.292;2022-11-24T08:42:09;20.63;;;10.63;;
36457;SDS011;22480;50.546;12.292;2022-11-24T08:44:35;20.17;;;8.18;;
36457;SDS011;22480;50.546;12.292;2022-11-24T08:47:01;21.25;;;8.95;;
36457;SDS011;22480;50.546;12.292;2022-11-24T08:49:27;26.10;;;11.18;;
36457;SDS011;22480;50.546;12.292;2022-11-24T08:51:52;21.48;;;10.02;;
36457;SDS011;22480;50.546;12.292;2022-11-24T08:54:20;17.05;;;8.30;;
36457;SDS011;22480;50.546;12.292;2022-11-24T08:56:47;16.98;;;8.32;;
36457;SDS011;22480;50.546;12.292;2022-11-24T08:59:13;22.80;;;10.13;;
36457;SDS011;22480;50.546;12.292;2022-11-24T09:01:39;19.75;;;8.50;;
36457;SDS011;22480;50.546;12.292;2022-11-24T09:04:06;17.00;;;8.32;;
36457;SDS011;22480;50.546;12.292;2022-11-24T09:06:31;12.75;;;6.85;;
36457;SDS011;22480;50.546;12.292;2022-11-24T09:08:57;17.73;;;6.95;;
36457;SDS011;22480;50.546;12.292;2022-11-24T09:11:24;13.55;;;6.15;;
36457;SDS011;22480;50.546;12.292;2022-11-24T09:13:51;14.00;;;6.80;;
36457;SDS011;22480;50.546;12.292;2022-11-24T09:16:19;15.50;;;6.90;;
36457;SDS011;22480;50.546;12.292;2022-11-24T09:18:47;15.00;;;5.70;;
36457;SDS011;22480;50.546;12.292;2022-11-24T09:21:19;13.65;;;5.78;;
36457;SDS011;22480;50.546;12.292;2022-11-24T09:23:46;15.50;;;6.05;;
36457;SDS011;22480;50.546;12.292;2022-11-24T09:26:21;15.27;;;5.78;;
36457;SDS011;22480;50.546;12.292;2022-11-24T09:28:52;17.30;;;6.22;;
36457;SDS011;22480;50.546;12.292;2022-11-24T09:31:19;13.00;;;5.22;;
36457;SDS011;22480;50.546;12.292;2022-11-24T09:33:47;15.52;;;4.97;;
36457;SDS011;22480;50.546;12.292;2022-11-24T09:36:13;18.15;;;5.35;;
36457;SDS011;22480;50.546;12.292;2022-11-24T09:38:39;13.20;;;4.95;;
36457;SDS011;22480;50.546;12.292;2022-11-24T09:44:10;14.60;;;5.32;;
36457;SDS011;22480;50.546;12.292;2022-11-24T09:52:09;12.20;;;4.80;;
36457;SDS011;22480;50.546;12.292;2022-11-24T09:54:49;14.32;;;4.65;;
36457;SDS011;22480;50.546;12.292;2022-11-24T09:57:19;14.88;;;4.45;;
36457;SDS011;22480;50.546;12.292;2022-11-24T09:59:47;12.90;;;4.80;;
36457;SDS011;22480;50.546;12.292;2022-11-24T10:02:13;15.20;;;4.72;;
36457;SDS011;22480;50.546;12.292;2022-11-24T10:04:41;8.35;;;4.13;;
36457;SDS011;22480;50.546;12.292;2022-11-24T10:17:50;10.30;;;3.80;;
36457;SDS011;22480;50.546;12.292;2022-11-24T10:25:48;9.93;;;3.40;;
36457;SDS011;22480;50.546;12.292;2022-11-24T10:28:20;10.02;;;3.28;;
36457;SDS011;22480;50.546;12.292;2022-11-24T10:30:50;9.45;;;2.22;;
36457;SDS011;22480;50.546;12.292;2022-11-24T10:33:18;11.00;;;2.83;;
36457;SDS011;22480;50.546;12.292;2022-11-24T10:35:59;7.65;;;2.63;;
36457;SDS011;22480;50.546;12.292;2022-11-24T10:38:34;7.20;;;2.88;;
36457;SDS011;22480;50.546;12.292;2022-11-24T10:41:04;11.75;;;3.50;;
36457;SDS011;22480;50.546;12.292;2022-11-24T10:43:43;7.53;;;3.42;;
36457;SDS011;22480;50.546;12.292;2022-11-24T10:48:46;9.75;;;3.20;;
36457;SDS011;22480;50.546;12.292;2022-11-24T10:51:39;11.25;;;3.50;;
36457;SDS011;22480;50.546;12.292;2022-11-24T10:54:06;9.25;;;2.97;;
36457;SDS011;22480;50.546;12.292;2022-11-24T10:56:39;7.18;;;2.60;;
36457;SDS011;22480;50.546;12.292;2022-11-24T10:59:48;8.60;;;2.17;;
36457;SDS011;22480;50.546;12.292;2022-11-24T11:02:00;10.50;;;3.30;;
36457;SDS011;22480;50.546;12.292;2022-11-24T11:06:51;12.38;;;3.53;;
36457;SDS011;22480;50.546;12.292;2022-11-24T11:09:40;9.07;;;2.53;;
36457;SDS011;22480;50.546;12.292;2022-11-24T11:12:17;8.55;;;2.85;;
36457;SDS011;22480;50.546;12.292;2022-11-24T11:14:45;11.80;;;3.60;;
36457;SDS011;22480;50.546;12.292;2022-11-24T11:20:06;12.48;;;2.22;;
36457;SDS011;22480;50.546;12.292;2022-11-24T11:22:46;12.63;;;2.88;;
36457;SDS011;22480;50.546;12.292;2022-11-24T11:27:43;12.45;;;4.05;;
36457;SDS011;22480;50.546;12.292;2022-11-24T11:32:53;9.10;;;3.47;;
36457;SDS011;22480;50.546;12.292;2022-11-24T11:37:52;9.55;;;3.28;;
36457;SDS011;22480;50.546;12.292;2022-11-24T11:40:27;11.75;;;3.42;;
36457;SDS011;22480;50.546;12.292;2022-11-24T11:43:05;12.38;;;3.70;;
36457;SDS011;22480;50.546;12.292;2022-11-24T11:45:43;12.07;;;2.90;;
36457;SDS011;22480;50.546;12.292;2022-11-24T11:56:41;12.82;;;2.50;;
36457;SDS011;22480;50.546;12.292;2022-11-24T12:05:00;12.18;;;3.97;;
36457;SDS011;22480;50.546;12.292;2022-11-24T12:07:37;10.10;;;3.08;;
36457;SDS011;22480;50.546;12.292;2022-11-24T12:17:56;11.70;;;3.47;;
36457;SDS011;22480;50.546;12.292;2022-11-24T12:43:57;17.17;;;6.68;;
36457;SDS011;22480;50.546;12.292;2022-11-24T12:51:48;12.48;;;5.75;;
36457;SDS011;22480;50.546;12.292;2022-11-24T12:54:20;12.85;;;3.35;;
36457;SDS011;22480;50.546;12.292;2022-11-24T12:57:06;11.38;;;3.35;;
36457;SDS011;22480;50.546;12.292;2022-11-24T12:59:38;17.10;;;4.85;;
36457;SDS011;22480;50.546;12.292;2022-11-24T13:02:15;12.48;;;5.03;;
36457;SDS011;22480;50.546;12.292;2022-11-24T13:07:56;14.57;;;5.55;;
36457;SDS011;22480;50.546;12.292;2022-11-24T13:13:04;14.10;;;5.60;;
36457;SDS011;22480;50.546;12.292;2022-11-24T13:24:05;19.38;;;6.95;;
36457;SDS011;22480;50.546;12.292;2022-11-24T13:27:17;17.20;;;5.68;;
36457;SDS011;22480;50.546;12.292;2022-11-24T13:29:40;43.80;;;16.75;;
36457;SDS011;22480;50.546;12.292;2022-11-24T13:39:59;16.75;;;5.82;;
36457;SDS011;22480;50.546;12.292;2022-11-24T13:55:58;10.43;;;4.32;;
36457;SDS011;22480;50.546;12.292;2022-11-24T13:58:36;11.88;;;4.70;;
36457;SDS011;22480;50.546;12.292;2022-11-24T14:03:33;13.40;;;5.60;;
36457;SDS011;22480;50.546;12.292;2022-11-24T14:06:01;12.95;;;6.63;;
36457;SDS011;22480;50.546;12.292;2022-11-24T14:08:31;11.35;;;5.15;;
36457;SDS011;22480;50.546;12.292;2022-11-24T14:11:00;13.45;;;5.43;;
36457;SDS011;22480;50.546;12.292;2022-11-24T14:13:30;21.45;;;7.88;;
36457;SDS011;22480;50.546;12.292;2022-11-24T14:18:42;16.20;;;6.63;;
36457;SDS011;22480;50.546;12.292;2022-11-24T14:21:55;11.68;;;4.57;;
36457;SDS011;22480;50.546;12.292;2022-11-24T14:24:08;8.43;;;3.17;;
36457;SDS011;22480;50.546;12.292;2022-11-24T14:26:42;10.52;;;4.18;;
36457;SDS011;22480;50.546;12.292;2022-11-24T14:29:20;13.82;;;3.80;;
36457;SDS011;22480;50.546;12.292;2022-11-24T14:31:53;11.35;;;3.92;;
36457;SDS011;22480;50.546;12.292;2022-11-24T14:34:21;13.20;;;5.25;;
36457;SDS011;22480;50.546;12.292;2022-11-24T14:36:48;14.40;;;5.13;;
36457;SDS011;22480;50.546;12.292;2022-11-24T14:39:16;22.30;;;5.97;;
36457;SDS011;22480;50.546;12.292;2022-11-24T14:44:28;15.68;;;4.63;;
36457;SDS011;22480;50.546;12.292;2022-11-24T14:47:16;12.80;;;4.32;;
36457;SDS011;22480;50.546;12.292;2022-11-24T14:49:46;16.60;;;5.18;;
36457;SDS011;22480;50.546;12.292;2022-11-24T14:52:14;11.93;;;4.78;;
36457;SDS011;22480;50.546;12.292;2022-11-24T14:54:47;14.38;;;4.32;;
36457;SDS011;22480;50.546;12.292;2022-11-24T14:57:22;15.57;;;4.78;;
36457;SDS011;22480;50.546;12.292;2022-11-24T15:02:55;13.85;;;4.47;;
36457;SDS011;22480;50.546;12.292;2022-11-24T15:05:51;10.02;;;4.78;;
36457;SDS011;22480;50.546;12.292;2022-11-24T15:08:19;14.80;;;4.80;;
36457;SDS011;22480;50.546;12.292;2022-11-24T15:10:45;12.15;;;4.32;;
36457;SDS011;22480;50.546;12.292;2022-11-24T15:13:15;11.73;;;3.47;;
36457;SDS011;22480;50.546;12.292;2022-11-24T15:15:53;10.15;;;3.30;;
36457;SDS011;22480;50.546;12.292;2022-11-24T15:18:32;9.85;;;5.10;;
36457;SDS011;22480;50.546;12.292;2022-11-24T15:21:01;11.63;;;4.25;;
36457;SDS011;22480;50.546;12.292;2022-11-24T15:23:28;12.85;;;4.03;;
36457;SDS011;22480;50.546;12.292;2022-11-24T15:28:28;14.32;;;4.68;;
36457;SDS011;22480;50.546;12.292;2022-11-24T15:30:55;15.60;;;5.63;;
36457;SDS011;22480;50.546;12.292;2022-11-24T15:33:25;17.75;;;7.70;;
36457;SDS011;22480;50.546;12.292;2022-11-24T15:35:51;18.38;;;6.38;;
36457;SDS011;22480;50.546;12.292;2022-11-24T15:38:17;22.88;;;6.68;;
36457;SDS011;22480;50.546;12.292;2022-11-24T15:40:47;21.33;;;8.85;;
36457;SDS011;22480;50.546;12.292;2022-11-24T15:45:55;23.98;;;10.13;;
36457;SDS011;22480;50.546;12.292;2022-11-24T15:48:22;25.23;;;13.40;;
36457;SDS011;22480;50.546;12.292;2022-11-24T15:50:48;27.63;;;14.73;;
36457;SDS011;22480;50.546;12.292;2022-11-24T15:53:16;28.77;;;13.82;;
36457;SDS011;22480;50.546;12.292;2022-11-24T15:55:55;21.77;;;11.05;;
36457;SDS011;22480;50.546;12.292;2022-11-24T15:58:21;24.48;;;13.52;;
36457;SDS011;22480;50.546;12.292;2022-11-24T16:00:47;24.50;;;13.13;;
36457;SDS011;22480;50.546;12.292;2022-11-24T16:03:14;21.90;;;11.07;;
36457;SDS011;22480;50.546;12.292;2022-11-24T16:05:40;30.35;;;15.23;;
36457;SDS011;22480;50.546;12.292;2022-11-24T16:08:11;18.83;;;9.20;;
36457;SDS011;22480;50.546;12.292;2022-11-24T16:10:37;15.32;;;7.20;;
36457;SDS011;22480;50.546;12.292;2022-11-24T16:13:03;19.77;;;8.10;;
36457;SDS011;22480;50.546;12.292;2022-11-24T16:15:29;16.05;;;6.03;;
36457;SDS011;22480;50.546;12.292;2022-11-24T16:17:55;14.88;;;5.75;;
36457;SDS011;22480;50.546;12.292;2022-11-24T16:20:21;13.75;;;6.55;;
36457;SDS011;22480;50.546;12.292;2022-11-24T16:22:46;13.52;;;6.78;;
36457;SDS011;22480;50.546;12.292;2022-11-24T16:25:12;19.98;;;9.05;;
36457;SDS011;22480;50.546;12.292;2022-11-24T16:27:39;19.60;;;9.98;;
36457;SDS011;22480;50.546;12.292;2022-11-24T16:30:05;26.52;;;14.15;;
36457;SDS011;22480;50.546;12.292;2022-11-24T16:32:32;25.77;;;16.20;;
36457;SDS011;22480;50.546;12.292;2022-11-24T16:34:59;17.23;;;9.82;;
36457;SDS011;22480;50.546;12.292;2022-11-24T16:37:24;15.40;;;7.70;;
36457;SDS011;22480;50.546;12.292;2022-11-24T16:39:50;18.23;;;10.45;;
36457;SDS011;22480;50.546;12.292;2022-11-24T16:42:16;15.07;;;7.07;;
36457;SDS011;22480;50.546;12.292;2022-11-24T16:44:42;16.48;;;7.53;;
36457;SDS011;22480;50.546;12.292;2022-11-24T16:47:07;12.43;;;7.03;;
36457;SDS011;22480;50.546;12.292;2022-11-24T16:49:33;13.90;;;6.18;;
36457;SDS011;22480;50.546;12.292;2022-11-24T16:51:59;9.70;;;5.63;;
36457;SDS011;22480;50.546;12.292;2022-11-24T16:54:25;12.23;;;7.47;;